CCS weather

Simón Bolívar International Airport
Caracas, Vargas, Venezuela

Public forecast

Using degrees Celsius for public forecast. Weather courtesy of forecast.io.

METAR (pilot weather report)

Retrieved 2019/09/16 13:00 UTC (7 minutes ago):

SVMI 161300Z 11005KT 9999 FEW016 27/23 Q1012

TAF (pilot weather forecast)

Retrieved 2019/09/16 12:03 UTC (1 hour ago):

TAF SVMI 161000Z 1612/1712 22003KT 9999 SCT016 TX32/18Z TN26/06Z BECMG 1612/1616 28002KT 9900 -DZ BKN016